createdAt,value
2022-11-24T00:01:30.100Z,9.40
2022-11-24T00:04:00.024Z,9.50
2022-11-24T00:06:30.591Z,9.50
2022-11-24T00:08:59.308Z,9.60
2022-11-24T00:11:29.904Z,9.50
2022-11-24T00:13:59.285Z,9.50
2022-11-24T00:16:29.673Z,9.60
2022-11-24T00:18:59.926Z,9.60
2022-11-24T00:21:31.313Z,9.70
2022-11-24T00:24:00.153Z,9.70
2022-11-24T00:26:29.814Z,9.70
2022-11-24T00:28:59.486Z,9.80
2022-11-24T00:31:29.447Z,9.80
2022-11-24T00:33:59.445Z,9.80
2022-11-24T00:36:30.813Z,9.80
2022-11-24T00:39:01.390Z,9.80
2022-11-24T00:41:30.190Z,9.70
2022-11-24T00:43:58.991Z,9.70
2022-11-24T00:46:27.946Z,9.60
2022-11-24T00:48:56.558Z,9.60
2022-11-24T00:51:27.820Z,9.50
2022-11-24T00:53:58.276Z,9.50
2022-11-24T00:56:27.094Z,9.40
2022-11-24T00:58:56.713Z,9.30
2022-11-24T01:01:27.191Z,9.30
2022-11-24T01:03:56.496Z,9.20
2022-11-24T01:06:26.716Z,9.10
2022-11-24T01:08:55.677Z,9.00
2022-11-24T01:11:26.733Z,9.10
2022-11-24T01:13:58.399Z,9.00
2022-11-24T01:16:29.313Z,9.00
2022-11-24T01:18:57.847Z,9.00
2022-11-24T01:21:26.254Z,9.00
2022-11-24T01:23:54.630Z,9.00
2022-11-24T01:26:25.371Z,9.00
2022-11-24T01:28:54.911Z,9.00
2022-11-24T01:31:23.724Z,9.10
2022-11-24T01:33:52.528Z,9.00
2022-11-24T01:36:20.925Z,9.00
2022-11-24T01:38:49.441Z,9.00
2022-11-24T01:41:19.846Z,9.00
2022-11-24T01:43:50.144Z,9.00
2022-11-24T01:46:22.702Z,9.10
2022-11-24T01:48:56.630Z,9.10
2022-11-24T01:51:27.842Z,9.10
2022-11-24T01:54:01.285Z,9.20
2022-11-24T01:56:31.009Z,9.20
2022-11-24T01:59:03.828Z,9.20
2022-11-24T02:01:33.042Z,9.30
2022-11-24T02:04:04.402Z,9.30
2022-11-24T02:06:34.849Z,9.30
2022-11-24T02:09:08.565Z,9.40
2022-11-24T02:11:39.412Z,9.40
2022-11-24T02:14:13.051Z,9.40
2022-11-24T02:16:44.873Z,9.50
2022-11-24T02:19:19.201Z,9.50
2022-11-24T02:21:47.632Z,9.50
2022-11-24T02:24:24.151Z,9.50
2022-11-24T02:26:53.782Z,9.60
2022-11-24T02:29:22.261Z,9.50
2022-11-24T02:31:55.754Z,9.60
2022-11-24T02:34:24.114Z,9.70
2022-11-24T02:36:52.575Z,9.70
2022-11-24T02:39:20.992Z,9.70
2022-11-24T02:41:54.028Z,9.80
2022-11-24T02:44:24.850Z,9.80
2022-11-24T02:47:03.462Z,9.80
2022-11-24T02:49:31.692Z,9.80
2022-11-24T02:51:59.931Z,9.90
2022-11-24T02:54:28.146Z,9.90
2022-11-24T02:56:57.946Z,9.90
2022-11-24T02:59:26.437Z,9.90
2022-11-24T03:01:54.747Z,9.90
2022-11-24T03:04:23.105Z,9.90
2022-11-24T03:06:51.375Z,9.90
2022-11-24T03:09:19.627Z,9.90
2022-11-24T03:11:47.872Z,9.90
2022-11-24T03:14:17.940Z,9.90
2022-11-24T03:16:46.151Z,9.90
2022-11-24T03:19:14.412Z,9.80
2022-11-24T03:21:42.647Z,9.90
2022-11-24T03:24:10.932Z,9.90
2022-11-24T03:26:39.085Z,9.90
2022-11-24T03:29:07.258Z,9.90
2022-11-24T03:31:36.805Z,9.90
2022-11-24T03:34:05.067Z,9.80
2022-11-24T03:36:33.207Z,9.90
2022-11-24T03:39:01.364Z,9.90
2022-11-24T03:41:29.607Z,9.90
2022-11-24T03:43:57.767Z,9.90
2022-11-24T03:46:25.945Z,9.90
2022-11-24T03:48:55.536Z,9.80
2022-11-24T03:51:23.736Z,9.80
2022-11-24T03:53:51.919Z,9.80
2022-11-24T03:56:20.541Z,9.80
2022-11-24T03:58:48.766Z,9.80
2022-11-24T04:01:16.994Z,9.90
2022-11-24T04:03:45.210Z,9.90
2022-11-24T04:06:14.766Z,9.90
2022-11-24T04:08:42.951Z,9.80
2022-11-24T04:11:31.517Z,9.80
2022-11-24T04:13:58.654Z,9.80
2022-11-24T04:16:26.891Z,9.70
2022-11-24T04:18:55.168Z,9.70
2022-11-24T04:21:24.896Z,9.70
2022-11-24T04:23:53.088Z,9.70
2022-11-24T04:26:21.260Z,9.70
2022-11-24T04:28:49.346Z,9.60
2022-11-24T04:31:18.268Z,9.60
2022-11-24T04:33:46.546Z,9.60
2022-11-24T04:36:14.713Z,9.60
2022-11-24T04:39:19.976Z,9.60
2022-11-24T04:41:32.440Z,9.70
2022-11-24T04:44:00.861Z,9.70
2022-11-24T04:46:29.083Z,9.70
2022-11-24T04:48:57.287Z,9.70
2022-11-24T04:51:25.446Z,9.70
2022-11-24T04:53:54.992Z,9.70
2022-11-24T04:56:23.154Z,9.80
2022-11-24T04:58:51.380Z,9.80
2022-11-24T05:01:19.633Z,9.90
2022-11-24T05:03:47.854Z,9.90
2022-11-24T05:06:16.070Z,9.90
2022-11-24T05:08:48.041Z,9.90
2022-11-24T05:11:18.581Z,10.00
2022-11-24T05:13:47.177Z,10.00
2022-11-24T05:16:15.721Z,10.00
2022-11-24T05:18:43.952Z,10.10
2022-11-24T05:21:12.178Z,10.10
2022-11-24T05:23:40.394Z,10.10
2022-11-24T05:26:08.658Z,10.10
2022-11-24T05:28:38.217Z,10.10
2022-11-24T05:31:06.532Z,10.10
2022-11-24T05:33:34.928Z,10.10
2022-11-24T05:36:04.490Z,10.10
2022-11-24T05:38:33.149Z,10.10
2022-11-24T05:41:02.531Z,10.10
2022-11-24T05:43:30.956Z,10.10
2022-11-24T05:46:02.355Z,10.10
2022-11-24T05:48:30.586Z,10.20
2022-11-24T05:50:59.573Z,10.20
2022-11-24T05:53:27.878Z,10.10
2022-11-24T05:55:56.058Z,10.20
2022-11-24T05:58:24.224Z,10.10
2022-11-24T06:00:53.312Z,10.20
2022-11-24T06:03:23.591Z,10.10
2022-11-24T06:05:51.754Z,10.00
2022-11-24T06:08:19.932Z,9.90
2022-11-24T06:10:48.320Z,9.80
2022-11-24T06:13:16.694Z,9.70
2022-11-24T06:15:45.210Z,9.80
2022-11-24T06:18:13.317Z,9.70
2022-11-24T06:20:57.617Z,9.70
2022-11-24T06:23:32.134Z,9.70
2022-11-24T06:26:00.646Z,9.60
2022-11-24T06:28:28.947Z,9.60
2022-11-24T06:31:02.018Z,9.60
2022-11-24T06:33:33.949Z,9.60
2022-11-24T06:36:06.235Z,9.60
2022-11-24T06:38:36.668Z,9.60
2022-11-24T06:41:07.185Z,9.60
2022-11-24T06:43:36.089Z,9.60
2022-11-24T06:46:04.922Z,9.60
2022-11-24T06:48:33.596Z,9.60
2022-11-24T06:51:04.805Z,9.70
2022-11-24T06:53:37.572Z,9.70
2022-11-24T06:56:10.707Z,9.70
2022-11-24T06:58:44.251Z,9.70
2022-11-24T07:01:15.738Z,9.70
2022-11-24T07:03:44.141Z,9.70
2022-11-24T07:06:13.661Z,9.70
2022-11-24T07:08:42.186Z,9.60
2022-11-24T07:11:12.814Z,9.60
2022-11-24T07:13:41.194Z,9.60
2022-11-24T07:16:15.002Z,9.60
2022-11-24T07:18:44.012Z,9.60
2022-11-24T07:21:13.876Z,9.60
2022-11-24T07:23:42.076Z,9.60
2022-11-24T07:26:11.800Z,9.60
2022-11-24T07:28:40.246Z,9.50
2022-11-24T07:31:09.678Z,9.50
2022-11-24T07:33:38.674Z,9.50
2022-11-24T07:36:08.505Z,9.50
2022-11-24T07:38:38.063Z,9.50
2022-11-24T07:41:08.134Z,9.50
2022-11-24T07:43:37.735Z,9.50
2022-11-24T07:46:07.243Z,9.50
2022-11-24T07:48:35.863Z,9.50
2022-11-24T07:51:05.430Z,9.50
2022-11-24T07:53:34.939Z,9.50
2022-11-24T07:56:07.124Z,9.50
2022-11-24T07:58:36.850Z,9.50
2022-11-24T08:01:13.604Z,9.50
2022-11-24T08:03:42.081Z,9.50
2022-11-24T08:06:32.280Z,9.50
2022-11-24T08:08:59.882Z,9.50
2022-11-24T08:11:31.476Z,9.60
2022-11-24T08:13:59.872Z,9.60
2022-11-24T08:16:28.092Z,9.70
2022-11-24T08:18:57.145Z,9.70
2022-11-24T08:21:25.990Z,9.70
2022-11-24T08:23:58.112Z,9.80
2022-11-24T08:26:29.993Z,9.80
2022-11-24T08:28:59.729Z,9.80
2022-11-24T08:31:33.452Z,9.90
2022-11-24T08:34:04.797Z,10.00
2022-11-24T08:36:33.812Z,10.00
2022-11-24T08:39:02.740Z,10.00
2022-11-24T08:41:33.149Z,10.00
2022-11-24T08:44:01.481Z,10.10
2022-11-24T08:46:29.741Z,10.10
2022-11-24T08:48:57.938Z,10.10
2022-11-24T08:51:27.584Z,10.10
2022-11-24T08:53:56.891Z,10.10
2022-11-24T08:56:25.359Z,10.20
2022-11-24T08:58:55.505Z,10.20
2022-11-24T09:01:24.452Z,10.20
2022-11-24T09:03:52.849Z,10.20
2022-11-24T09:06:23.850Z,10.20
2022-11-24T09:08:52.378Z,10.20
2022-11-24T09:11:21.085Z,10.30
2022-11-24T09:13:49.418Z,10.30
2022-11-24T09:16:21.233Z,10.40
2022-11-24T09:18:54.944Z,10.50
2022-11-24T09:21:23.895Z,10.50
2022-11-24T09:23:53.706Z,10.60
2022-11-24T09:26:24.609Z,10.60
2022-11-24T09:28:54.998Z,10.70
2022-11-24T09:34:00.965Z,10.70
2022-11-24T09:36:31.779Z,10.80
2022-11-24T09:41:51.526Z,10.80
2022-11-24T09:47:32.075Z,10.90
2022-11-24T09:58:13.274Z,11.00
2022-11-24T10:00:42.664Z,11.10
2022-11-24T10:03:27.190Z,11.10
2022-11-24T10:05:55.794Z,11.20
2022-11-24T10:08:37.193Z,11.20
2022-11-24T10:11:12.537Z,11.30
2022-11-24T10:14:02.920Z,11.30
2022-11-24T10:16:43.850Z,11.40
2022-11-24T10:19:23.412Z,11.40
2022-11-24T10:22:01.924Z,11.40
2022-11-24T10:24:59.755Z,11.50
2022-11-24T10:27:34.538Z,11.60
2022-11-24T10:30:15.884Z,11.60
2022-11-24T10:32:48.366Z,11.60
2022-11-24T10:35:19.521Z,11.70
2022-11-24T10:37:56.613Z,11.80
2022-11-24T10:43:27.954Z,11.80
2022-11-24T10:46:05.949Z,11.80
2022-11-24T10:48:42.176Z,11.90
2022-11-24T10:51:48.975Z,11.90
2022-11-24T10:54:19.190Z,12.00
2022-11-24T10:56:48.956Z,12.00
2022-11-24T10:59:33.130Z,12.10
2022-11-24T11:02:04.192Z,12.10
2022-11-24T11:04:34.453Z,12.20
2022-11-24T11:07:19.078Z,12.20
2022-11-24T11:09:48.155Z,12.20
2022-11-24T11:15:25.559Z,12.30
2022-11-24T11:17:59.024Z,12.30
2022-11-24T11:20:31.024Z,12.40
2022-11-24T11:23:01.249Z,12.40
2022-11-24T11:25:33.240Z,12.50
2022-11-24T11:28:27.549Z,12.50
2022-11-24T11:31:21.038Z,12.60
2022-11-24T11:34:03.810Z,12.60
2022-11-24T11:36:34.015Z,12.60
2022-11-24T11:39:03.655Z,12.60
2022-11-24T11:41:35.119Z,12.60
2022-11-24T11:44:21.748Z,12.60
2022-11-24T11:46:49.944Z,12.60
2022-11-24T11:49:19.884Z,12.60
2022-11-24T11:52:04.690Z,12.60
2022-11-24T11:54:48.217Z,12.70
2022-11-24T11:57:28.404Z,12.70
2022-11-24T12:00:06.184Z,12.70
2022-11-24T12:03:06.596Z,12.70
2022-11-24T12:05:48.479Z,12.80
2022-11-24T12:08:49.486Z,12.80
2022-11-24T12:11:26.885Z,12.90
2022-11-24T12:14:13.861Z,12.90
2022-11-24T12:16:53.162Z,12.90
2022-11-24T12:19:35.105Z,12.90
2022-11-24T12:22:12.335Z,12.90
2022-11-24T12:24:48.101Z,12.90
2022-11-24T12:27:24.600Z,12.90
2022-11-24T12:30:10.602Z,12.90
2022-11-24T12:33:07.678Z,12.90
2022-11-24T12:35:39.815Z,13.00
2022-11-24T12:38:23.682Z,13.00
2022-11-24T12:41:40.418Z,13.10
2022-11-24T12:44:26.055Z,13.10
2022-11-24T12:47:00.313Z,13.10
2022-11-24T12:49:35.078Z,13.20
2022-11-24T12:52:20.656Z,13.20
2022-11-24T12:54:50.249Z,13.20
2022-11-24T12:57:22.671Z,13.20
2022-11-24T13:00:00.194Z,13.20
2022-11-24T13:02:39.009Z,13.20
2022-11-24T13:05:20.585Z,13.20
2022-11-24T13:07:51.095Z,13.20
2022-11-24T13:10:55.218Z,13.30
2022-11-24T13:13:27.101Z,13.30
2022-11-24T13:19:09.937Z,13.40
2022-11-24T13:22:05.523Z,13.40
2022-11-24T13:24:36.538Z,13.50
2022-11-24T13:27:39.742Z,13.50
2022-11-24T13:30:50.950Z,13.60
2022-11-24T13:33:33.419Z,13.60
2022-11-24T13:36:52.935Z,13.60
2022-11-24T13:39:22.490Z,13.60
2022-11-24T13:42:42.679Z,13.60
2022-11-24T13:45:02.118Z,13.60
2022-11-24T13:47:36.273Z,13.60
2022-11-24T13:50:07.066Z,13.70
2022-11-24T13:52:50.331Z,13.70
2022-11-24T13:55:32.310Z,13.70
2022-11-24T13:58:08.166Z,13.70
2022-11-24T14:01:02.583Z,13.70
2022-11-24T14:03:34.838Z,13.80
2022-11-24T14:06:04.171Z,13.80
2022-11-24T14:08:35.781Z,13.80
2022-11-24T14:11:12.432Z,13.80
2022-11-24T14:13:40.644Z,13.90
2022-11-24T14:16:17.866Z,13.90
2022-11-24T14:18:48.004Z,14.10
2022-11-24T14:21:23.996Z,14.20
2022-11-24T14:23:55.101Z,14.30
2022-11-24T14:26:33.417Z,14.50
2022-11-24T14:29:06.870Z,14.60
2022-11-24T14:31:36.535Z,14.80
2022-11-24T14:34:21.123Z,15.00
2022-11-24T14:36:50.037Z,15.20
2022-11-24T14:39:19.622Z,15.30
2022-11-24T14:41:53.255Z,15.30
2022-11-24T14:44:24.928Z,15.30
2022-11-24T14:47:02.757Z,15.30
2022-11-24T14:49:32.382Z,15.20
2022-11-24T14:52:03.780Z,15.10
2022-11-24T14:54:32.800Z,15.10
2022-11-24T14:57:04.104Z,15.10
2022-11-24T14:59:35.955Z,15.00
2022-11-24T15:02:40.773Z,14.90
2022-11-24T15:05:09.212Z,14.70
2022-11-24T15:07:39.361Z,14.60
2022-11-24T15:10:19.780Z,14.40
2022-11-24T15:12:53.579Z,14.30
2022-11-24T15:15:33.159Z,14.20
2022-11-24T15:18:05.548Z,14.10
2022-11-24T15:20:36.006Z,14.00
2022-11-24T15:23:24.980Z,13.80
2022-11-24T15:25:54.232Z,13.70
2022-11-24T15:28:25.741Z,13.60
2022-11-24T15:30:55.274Z,13.50
2022-11-24T15:33:24.958Z,13.40
2022-11-24T15:35:53.494Z,13.30
2022-11-24T15:38:22.688Z,13.20
2022-11-24T15:40:53.202Z,13.10
2022-11-24T15:43:29.791Z,13.00
2022-11-24T15:45:58.826Z,12.90
2022-11-24T15:48:28.812Z,12.80
2022-11-24T15:50:58.432Z,12.70
2022-11-24T15:53:30.739Z,12.60
2022-11-24T15:55:59.884Z,12.60
2022-11-24T15:58:28.027Z,12.50
2022-11-24T16:00:56.261Z,12.50
2022-11-24T16:03:46.534Z,12.40
2022-11-24T16:06:22.245Z,12.40
2022-11-24T16:08:52.484Z,12.30
2022-11-24T16:11:20.701Z,12.20
2022-11-24T16:13:53.001Z,12.20
2022-11-24T16:16:23.124Z,12.10
2022-11-24T16:18:51.488Z,12.10
2022-11-24T16:21:21.118Z,12.00
2022-11-24T16:23:49.341Z,12.00
2022-11-24T16:26:17.564Z,11.90
2022-11-24T16:28:46.224Z,11.90
2022-11-24T16:31:16.290Z,11.90
2022-11-24T16:33:46.446Z,11.80
2022-11-24T16:36:15.227Z,11.80
2022-11-24T16:38:45.118Z,11.70
2022-11-24T16:41:13.738Z,11.70
2022-11-24T16:43:42.166Z,11.70
2022-11-24T16:46:19.213Z,11.60
2022-11-24T16:48:49.575Z,11.60
2022-11-24T16:51:18.620Z,11.50
2022-11-24T16:53:48.574Z,11.50
2022-11-24T16:56:17.434Z,11.50
2022-11-24T16:58:45.635Z,11.40
2022-11-24T17:01:15.644Z,11.40
2022-11-24T17:03:43.938Z,11.30
2022-11-24T17:06:15.641Z,11.30
2022-11-24T17:08:45.361Z,11.20
2022-11-24T17:11:17.047Z,11.20
2022-11-24T17:13:47.069Z,11.20
2022-11-24T17:16:17.236Z,11.10
2022-11-24T17:18:46.217Z,11.00
2022-11-24T17:21:16.815Z,11.00
2022-11-24T17:23:45.646Z,10.90
2022-11-24T17:26:16.818Z,10.90
2022-11-24T17:28:45.287Z,10.90
2022-11-24T17:31:19.985Z,10.80
2022-11-24T17:33:48.403Z,10.80
2022-11-24T17:36:16.609Z,10.80
2022-11-24T17:38:44.738Z,10.80
2022-11-24T17:41:13.170Z,10.70
2022-11-24T17:43:42.737Z,10.70
2022-11-24T17:46:11.806Z,10.70
2022-11-24T17:48:40.335Z,10.70
2022-11-24T17:51:12.748Z,10.70
2022-11-24T17:53:42.158Z,10.70
2022-11-24T17:56:13.803Z,10.60
2022-11-24T17:58:43.809Z,10.60
2022-11-24T18:01:12.615Z,10.50
2022-11-24T18:03:41.362Z,10.50
2022-11-24T18:06:11.656Z,10.40
2022-11-24T18:08:41.192Z,10.40
2022-11-24T18:11:10.808Z,10.40
2022-11-24T18:16:30.195Z,10.30
2022-11-24T18:19:09.837Z,10.30
2022-11-24T18:21:38.883Z,10.20
2022-11-24T18:24:07.945Z,10.20
2022-11-24T18:26:36.368Z,10.20
2022-11-24T18:29:05.173Z,10.20
2022-11-24T18:31:35.684Z,10.20
2022-11-24T18:34:05.513Z,10.20
2022-11-24T18:36:34.952Z,10.20
2022-11-24T18:39:03.688Z,10.20
2022-11-24T18:41:32.357Z,10.10
2022-11-24T18:44:02.248Z,10.20
2022-11-24T18:46:30.661Z,10.20
2022-11-24T18:49:00.423Z,10.20
2022-11-24T18:51:28.856Z,10.20
2022-11-24T18:53:58.164Z,10.20
2022-11-24T18:56:27.899Z,10.20
2022-11-24T18:58:57.399Z,10.20
2022-11-24T19:01:27.626Z,10.20
2022-11-24T19:03:57.417Z,10.20
2022-11-24T19:06:32.070Z,10.20
2022-11-24T19:09:01.983Z,10.20
2022-11-24T19:11:33.836Z,10.10
2022-11-24T19:14:03.031Z,10.10
2022-11-24T19:16:31.524Z,10.00
2022-11-24T19:19:01.762Z,10.00
2022-11-24T19:21:33.197Z,9.90
2022-11-24T19:24:05.588Z,9.90
2022-11-24T19:26:34.752Z,9.90
2022-11-24T19:29:03.157Z,9.90
2022-11-24T19:31:32.901Z,9.80
2022-11-24T19:34:03.257Z,9.80
2022-11-24T19:36:33.475Z,9.70
2022-11-24T19:39:03.079Z,9.70
2022-11-24T19:41:33.009Z,9.70
2022-11-24T19:44:01.736Z,9.60
2022-11-24T19:46:30.744Z,9.60
2022-11-24T19:49:01.349Z,9.50
2022-11-24T19:51:33.218Z,9.50
2022-11-24T19:54:02.553Z,9.40
2022-11-24T19:56:34.339Z,9.40
2022-11-24T19:59:03.955Z,9.30
2022-11-24T20:01:33.715Z,9.30
2022-11-24T20:04:05.053Z,9.30
2022-11-24T20:06:37.948Z,9.20
2022-11-24T20:09:08.450Z,9.20
2022-11-24T20:11:37.130Z,9.20
2022-11-24T20:14:05.961Z,9.20
2022-11-24T20:16:35.872Z,9.20
2022-11-24T20:19:07.074Z,9.10
2022-11-24T20:21:38.178Z,9.10
2022-11-24T20:24:08.887Z,9.10
2022-11-24T20:26:38.796Z,9.10
2022-11-24T20:29:09.712Z,9.10
2022-11-24T20:31:40.883Z,9.00
2022-11-24T20:34:10.232Z,9.00
2022-11-24T20:36:41.393Z,9.00
2022-11-24T20:39:12.974Z,8.90
2022-11-24T20:41:41.777Z,8.90
2022-11-24T20:44:15.141Z,8.80
2022-11-24T20:46:45.269Z,8.80
2022-11-24T20:49:15.830Z,8.70
2022-11-24T20:51:47.589Z,8.70
2022-11-24T20:54:17.735Z,8.70
2022-11-24T20:56:47.265Z,8.70
2022-11-24T20:59:18.072Z,8.70
2022-11-24T21:01:47.781Z,8.60
2022-11-24T21:04:18.233Z,8.50
2022-11-24T21:06:48.412Z,8.50
2022-11-24T21:09:16.967Z,8.50
2022-11-24T21:11:45.116Z,8.50
2022-11-24T21:14:13.748Z,8.50
2022-11-24T21:16:43.504Z,8.50
2022-11-24T21:19:14.049Z,8.50
2022-11-24T21:21:43.515Z,8.40
2022-11-24T21:24:15.419Z,8.40
2022-11-24T21:26:47.295Z,8.50
2022-11-24T21:29:17.767Z,8.50
2022-11-24T21:31:46.219Z,8.50
2022-11-24T21:34:16.345Z,8.50
2022-11-24T21:36:45.397Z,8.50
2022-11-24T21:39:16.129Z,8.50
2022-11-24T21:41:44.405Z,8.50
2022-11-24T21:44:13.407Z,8.50
2022-11-24T21:46:49.356Z,8.50
2022-11-24T21:49:19.294Z,8.50
2022-11-24T21:51:48.024Z,8.50
2022-11-24T21:54:17.579Z,8.50
2022-11-24T21:56:45.701Z,8.50
2022-11-24T21:59:13.900Z,8.50
2022-11-24T22:01:42.197Z,8.50
2022-11-24T22:04:23.462Z,8.50
2022-11-24T22:07:02.155Z,8.40
2022-11-24T22:09:32.356Z,8.50
2022-11-24T22:12:00.912Z,8.50
2022-11-24T22:14:30.081Z,8.60
2022-11-24T22:16:58.301Z,8.60
2022-11-24T22:19:26.440Z,8.70
2022-11-24T22:21:54.621Z,8.70
2022-11-24T22:24:35.939Z,8.70
2022-11-24T22:27:05.653Z,8.80
2022-11-24T22:29:33.792Z,8.80
2022-11-24T22:32:02.151Z,8.80
2022-11-24T22:34:30.564Z,8.90
2022-11-24T22:36:58.919Z,8.90
2022-11-24T22:39:27.179Z,8.90
2022-11-24T22:41:55.423Z,8.90
2022-11-24T22:44:24.951Z,8.90
2022-11-24T22:46:53.184Z,8.90
2022-11-24T22:49:22.000Z,8.90
2022-11-24T22:51:50.259Z,8.90
2022-11-24T22:54:18.465Z,8.90
2022-11-24T22:56:46.811Z,8.90
2022-11-24T22:59:15.038Z,8.90
2022-11-24T23:01:44.612Z,8.90
2022-11-24T23:04:12.824Z,8.90
2022-11-24T23:06:41.586Z,8.90
2022-11-24T23:09:12.684Z,8.90
2022-11-24T23:11:41.964Z,8.90
2022-11-24T23:14:14.566Z,9.00
2022-11-24T23:16:44.357Z,9.00
2022-11-24T23:19:12.748Z,9.00
2022-11-24T23:21:41.229Z,9.00
2022-11-24T23:24:10.963Z,8.90
2022-11-24T23:26:41.279Z,8.90
2022-11-24T23:29:11.062Z,9.00
2022-11-24T23:31:40.630Z,8.90
2022-11-24T23:34:10.503Z,8.90
2022-11-24T23:36:38.854Z,8.90
2022-11-24T23:39:09.444Z,8.90
2022-11-24T23:41:37.606Z,8.90
2022-11-24T23:44:06.211Z,8.90
2022-11-24T23:46:34.517Z,8.90
2022-11-24T23:49:03.124Z,8.90
2022-11-24T23:51:34.577Z,8.90
2022-11-24T23:54:02.852Z,8.90
2022-11-24T23:56:33.110Z,8.90
2022-11-24T23:59:02.619Z,8.90
